Airfield :
LOGIN :

Register | Disclaimer

   EN    FR    IT 

 










Legend :    VFR   Marginal VFR   IFR   Intensive IFR   Very Intensive IFR
Visi :
Ceiling :
>= 8 km
>= 3000ft
5 to 8 km
1000 to 3000 ft
1500m to 5 km
500 to 1000 ft
800 to 1500m
200 to 500 ft
< 800m
< 200 ft
Symbols :   Thunderstorms  Fog  Heavy snow  Heavy precipitations  Wind > 20 kt
SIGMETs :     Misc.  Thunderstorms  Icing  Turbulence  Mountain Waves  Volcanic Ashes







- Airport Elevation : 16 ft
- IATA code : SDR


LEXJ - Santander Cantabria

CURRENT METAR :
  • 191930Z 00000KT 9999 FEW078 15/13 Q1011

EXPIRED METARs :
  • 191900Z 00000KT 9999 FEW060 16/14 Q1010
  • 191830Z VRB01KT 9999 BKN076 17/14 Q1010
  • 191800Z VRB02KT 9999 BKN069 18/14 Q1010
  • 191730Z 11004KT 080V140 9999 SCT065 BKN080 18/14 Q1010
  • 191700Z 11003KT 9999 FEW080 18/14 Q1010

TAF TAF LEXJ
Valid from the 19 at 15:00 until the 20 at 15:00 UTC


191400Z 1915/2015 VRB04KT 9999 FEW040 TX23/2014Z TN14/2006Z
TEMPO 1915/1918 04010KT
PROB30
TEMPO 1921/1924 28010KT RADZ
No reported NOTAMs for that airfield.
1 SIGMET reported for the Madrid FIR (LECM) :
 
Severe turbulence
LECM SIGMET 7 VALID 192000/192400 LEVA
LECM MADRID FIR/UIR SEV TURB FCST E OF LINE N4340 W002 - N3810 W002 FL200/340 MOV E 20KT WKN=



MET'MAP, your aeronautical weather chart ! - Copyright ORBIFLY December 2007 - Disclaimer

ORBIFLY MET'MAP TEAM :

Programming & Development : Alexandra Zaïnal
Concept & Development : Baudouin d'Aumeries
Co-Development & Prog : Marc-Olivier Méhu
Technical & hardware support : Manuel Goepfert

Contact : metmap@orbifly.com




SOURCES & CREDITS :

   NOAA